createdAt,value
2018-12-07T00:02:14.290Z,25.97
2018-12-07T00:04:41.851Z,25.60
2018-12-07T00:07:09.415Z,25.77
2018-12-07T00:09:36.993Z,23.80
2018-12-07T00:12:04.592Z,24.13
2018-12-07T00:14:32.155Z,23.10
2018-12-07T00:16:59.681Z,20.93
2018-12-07T00:19:27.219Z,22.10
2018-12-07T00:21:55.349Z,22.17
2018-12-07T00:24:22.919Z,19.07
2018-12-07T00:26:50.413Z,19.23
2018-12-07T00:29:17.931Z,18.60
2018-12-07T00:31:45.453Z,18.80
2018-12-07T00:34:13.009Z,18.20
2018-12-07T00:36:40.668Z,16.77
2018-12-07T00:39:08.233Z,19.13
2018-12-07T00:41:35.827Z,17.40
2018-12-07T00:44:03.493Z,15.87
2018-12-07T00:46:31.046Z,15.90
2018-12-07T00:48:58.650Z,16.00
2018-12-07T00:51:26.173Z,15.63
2018-12-07T00:53:53.785Z,15.07
2018-12-07T00:56:21.333Z,15.57
2018-12-07T00:58:48.884Z,14.10
2018-12-07T01:01:16.420Z,14.03
2018-12-07T01:03:43.990Z,14.40
2018-12-07T01:06:11.598Z,13.47
2018-12-07T01:08:39.211Z,13.50
2018-12-07T01:11:06.826Z,12.30
2018-12-07T01:13:34.376Z,11.10
2018-12-07T01:16:01.969Z,11.57
2018-12-07T01:18:29.551Z,12.27
2018-12-07T01:20:57.149Z,11.60
2018-12-07T01:23:24.709Z,10.90
2018-12-07T01:25:52.277Z,10.70
2018-12-07T01:28:19.819Z,9.33
2018-12-07T01:30:47.409Z,10.60
2018-12-07T01:33:14.969Z,10.03
2018-12-07T01:35:42.535Z,9.70
2018-12-07T01:38:10.144Z,9.23
2018-12-07T01:40:37.691Z,9.47
2018-12-07T01:43:05.273Z,9.40
2018-12-07T01:45:32.780Z,8.30
2018-12-07T01:48:00.301Z,8.73
2018-12-07T01:50:27.963Z,9.47
2018-12-07T01:52:55.522Z,9.03
2018-12-07T01:55:23.078Z,8.30
2018-12-07T01:57:50.673Z,8.43
2018-12-07T02:00:18.223Z,8.13
2018-12-07T02:02:45.737Z,7.67
2018-12-07T02:05:13.277Z,8.00
2018-12-07T02:07:40.855Z,8.03
2018-12-07T02:10:08.421Z,7.87
2018-12-07T02:12:36.023Z,7.50
2018-12-07T02:15:03.897Z,7.30
2018-12-07T02:17:31.441Z,6.50
2018-12-07T02:19:58.989Z,6.67
2018-12-07T02:22:26.719Z,6.80
2018-12-07T02:24:54.242Z,6.07
2018-12-07T02:27:21.759Z,7.17
2018-12-07T02:29:49.262Z,6.33
2018-12-07T02:32:16.840Z,7.03
2018-12-07T02:34:44.367Z,6.70
2018-12-07T02:37:11.927Z,6.73
2018-12-07T02:39:39.445Z,6.73
2018-12-07T02:42:07.019Z,6.63
2018-12-07T02:44:34.531Z,6.73
2018-12-07T02:47:02.170Z,6.53
2018-12-07T02:49:29.711Z,5.73
2018-12-07T02:51:57.891Z,6.30
2018-12-07T02:54:25.511Z,6.37
2018-12-07T02:56:53.151Z,5.80
2018-12-07T02:59:20.705Z,6.70
2018-12-07T03:01:48.193Z,5.90
2018-12-07T03:04:15.776Z,5.33
2018-12-07T03:06:43.339Z,5.90
2018-12-07T03:09:10.898Z,5.70
2018-12-07T03:11:38.414Z,6.77
2018-12-07T03:14:05.930Z,5.97
2018-12-07T03:16:33.459Z,5.73
2018-12-07T03:19:01.087Z,5.73
2018-12-07T03:21:29.075Z,4.90
2018-12-07T03:23:56.732Z,5.97
2018-12-07T03:26:24.303Z,5.90
2018-12-07T03:28:51.871Z,6.20
2018-12-07T03:31:19.384Z,5.93
2018-12-07T03:33:47.106Z,5.70
2018-12-07T03:36:14.863Z,6.03
2018-12-07T03:38:42.457Z,6.07
2018-12-07T03:41:09.976Z,5.97
2018-12-07T03:43:37.477Z,5.47
2018-12-07T03:46:05.029Z,5.70
2018-12-07T03:48:32.622Z,5.80
2018-12-07T03:51:00.283Z,5.83
2018-12-07T03:53:27.871Z,5.97
2018-12-07T03:55:55.420Z,5.83
2018-12-07T03:58:22.967Z,6.13
2018-12-07T04:00:50.559Z,6.63
2018-12-07T04:03:18.623Z,5.80
2018-12-07T04:05:46.161Z,5.57
2018-12-07T04:08:13.662Z,6.08
2018-12-07T04:10:41.203Z,6.60
2018-12-07T04:13:08.710Z,6.70
2018-12-07T04:15:36.779Z,7.03
2018-12-07T04:18:05.231Z,6.90
2018-12-07T04:20:32.737Z,6.40
2018-12-07T04:23:00.229Z,6.63
2018-12-07T04:25:27.780Z,6.20
2018-12-07T04:27:55.292Z,6.63
2018-12-07T04:30:24.140Z,7.10
2018-12-07T04:32:51.799Z,6.30
2018-12-07T04:35:19.307Z,7.43
2018-12-07T04:37:46.817Z,7.03
2018-12-07T04:40:14.843Z,6.90
2018-12-07T04:42:42.514Z,8.10
2018-12-07T04:45:10.288Z,7.60
2018-12-07T04:47:37.851Z,7.93
2018-12-07T04:50:05.717Z,6.93
2018-12-07T04:52:33.330Z,7.77
2018-12-07T04:55:01.006Z,6.50
2018-12-07T04:57:28.576Z,6.83
2018-12-07T04:59:56.122Z,7.93
2018-12-07T05:02:23.774Z,7.83
2018-12-07T05:04:51.382Z,7.77
2018-12-07T05:07:18.877Z,8.47
2018-12-07T05:09:46.400Z,8.08
2018-12-07T05:12:13.917Z,8.27
2018-12-07T05:14:41.459Z,8.13
2018-12-07T05:17:09.104Z,8.10
2018-12-07T05:19:37.610Z,8.67
2018-12-07T05:22:05.135Z,8.80
2018-12-07T05:24:34.512Z,8.20
2018-12-07T05:27:02.882Z,7.93
2018-12-07T05:29:30.538Z,8.60
2018-12-07T05:31:58.133Z,8.43
2018-12-07T05:34:25.778Z,9.37
2018-12-07T05:36:53.400Z,8.67
2018-12-07T05:39:20.929Z,8.60
2018-12-07T05:41:48.438Z,8.87
2018-12-07T05:44:16.497Z,9.20
2018-12-07T05:46:44.064Z,8.53
2018-12-07T05:49:12.462Z,9.20
2018-12-07T05:51:40.023Z,8.57
2018-12-07T05:54:07.538Z,8.77
2018-12-07T05:56:35.128Z,9.07
2018-12-07T05:59:02.902Z,8.50
2018-12-07T06:01:30.490Z,9.60
2018-12-07T06:03:58.059Z,9.40
2018-12-07T06:06:25.590Z,8.30
2018-12-07T06:08:53.130Z,9.37
2018-12-07T06:11:20.673Z,8.70
2018-12-07T06:13:48.234Z,8.03
2018-12-07T06:16:15.737Z,8.60
2018-12-07T06:18:43.377Z,7.23
2018-12-07T06:21:10.867Z,7.63
2018-12-07T06:23:38.399Z,7.50
2018-12-07T06:26:05.983Z,6.03
2018-12-07T06:28:33.528Z,7.07
2018-12-07T06:31:01.086Z,8.00
2018-12-07T06:33:28.619Z,8.20
2018-12-07T06:35:56.281Z,7.93
2018-12-07T06:38:23.875Z,9.30
2018-12-07T06:40:51.501Z,7.70
2018-12-07T06:43:18.993Z,7.90
2018-12-07T06:45:46.745Z,8.47
2018-12-07T06:48:14.234Z,8.07
2018-12-07T06:50:41.775Z,9.07
2018-12-07T06:53:09.299Z,8.23
2018-12-07T06:55:36.843Z,8.67
2018-12-07T06:58:04.501Z,9.17
2018-12-07T07:00:32.033Z,8.97
2018-12-07T07:02:59.712Z,9.30
2018-12-07T07:05:27.248Z,8.33
2018-12-07T07:07:54.829Z,9.33
2018-12-07T07:10:22.398Z,9.60
2018-12-07T07:12:49.975Z,9.50
2018-12-07T07:15:17.673Z,8.33
2018-12-07T07:17:45.222Z,8.57
2018-12-07T07:20:12.823Z,7.97
2018-12-07T07:22:40.489Z,8.27
2018-12-07T07:25:08.110Z,8.13
2018-12-07T07:27:35.596Z,8.10
2018-12-07T07:30:04.295Z,7.23
2018-12-07T07:32:31.782Z,7.30
2018-12-07T07:34:59.296Z,7.93
2018-12-07T07:37:26.790Z,7.63
2018-12-07T07:39:54.290Z,7.33
2018-12-07T07:42:21.868Z,7.57
2018-12-07T07:44:49.402Z,7.70
2018-12-07T07:47:16.916Z,7.23
2018-12-07T07:49:44.444Z,8.33
2018-12-07T07:52:11.934Z,7.73
2018-12-07T07:54:39.466Z,7.33
2018-12-07T07:57:07.020Z,9.13
2018-12-07T07:59:34.526Z,9.33
2018-12-07T08:02:02.047Z,8.97
2018-12-07T08:04:29.557Z,10.03
2018-12-07T08:06:57.094Z,9.93
2018-12-07T08:09:24.686Z,10.20
2018-12-07T08:11:52.210Z,11.83
2018-12-07T08:14:19.834Z,12.10
2018-12-07T08:16:47.354Z,12.83
2018-12-07T08:19:15.181Z,13.50
2018-12-07T08:21:42.704Z,13.30
2018-12-07T08:24:10.216Z,15.43
2018-12-07T08:26:37.811Z,15.13
2018-12-07T08:29:05.453Z,15.83
2018-12-07T08:31:32.961Z,15.10
2018-12-07T08:34:00.460Z,17.10
2018-12-07T08:36:28.082Z,16.70
2018-12-07T08:38:55.602Z,16.83
2018-12-07T08:41:23.212Z,17.33
2018-12-07T08:43:50.779Z,16.97
2018-12-07T08:46:18.343Z,18.00
2018-12-07T08:48:46.570Z,15.45
2018-12-07T08:51:14.084Z,15.70
2018-12-07T08:53:41.582Z,16.33
2018-12-07T08:56:09.096Z,16.33
2018-12-07T08:58:36.707Z,16.47
2018-12-07T09:01:04.283Z,16.23
2018-12-07T09:03:31.801Z,15.50
2018-12-07T09:05:59.442Z,17.07
2018-12-07T09:08:27.004Z,16.90
2018-12-07T09:10:54.666Z,17.02
2018-12-07T09:13:22.237Z,16.10
2018-12-07T09:15:49.752Z,17.67
2018-12-07T09:18:17.813Z,16.83
2018-12-07T09:20:45.534Z,16.90
2018-12-07T09:23:13.058Z,17.93
2018-12-07T09:25:40.638Z,16.63
2018-12-07T09:28:08.134Z,16.67
2018-12-07T09:30:35.734Z,17.37
2018-12-07T09:33:03.284Z,16.90
2018-12-07T09:35:30.891Z,18.13
2018-12-07T09:37:58.450Z,16.97
2018-12-07T09:40:26.012Z,16.57
2018-12-07T09:42:53.558Z,16.87
2018-12-07T09:45:21.132Z,16.23
2018-12-07T09:47:49.040Z,13.65
2018-12-07T09:50:16.623Z,15.10
2018-12-07T09:52:44.274Z,14.30
2018-12-07T09:55:11.777Z,14.03
2018-12-07T09:57:39.324Z,13.47
2018-12-07T10:00:06.994Z,12.37
2018-12-07T10:02:34.649Z,13.90
2018-12-07T10:05:02.192Z,11.53
2018-12-07T10:07:29.700Z,10.27
2018-12-07T10:09:57.241Z,10.00
2018-12-07T10:12:24.753Z,10.20
2018-12-07T10:14:52.295Z,9.10
2018-12-07T10:17:20.144Z,8.70
2018-12-07T10:19:47.666Z,7.33
2018-12-07T10:22:15.293Z,7.13
2018-12-07T10:24:42.793Z,6.43
2018-12-07T10:27:10.343Z,5.97
2018-12-07T10:29:37.923Z,5.33
2018-12-07T10:32:05.485Z,5.30
2018-12-07T10:34:33.949Z,6.20
2018-12-07T10:37:01.554Z,5.80
2018-12-07T10:39:29.097Z,5.37
2018-12-07T10:41:56.671Z,5.80
2018-12-07T10:44:24.203Z,5.30
2018-12-07T10:46:51.844Z,5.37
2018-12-07T10:49:19.353Z,5.97
2018-12-07T10:51:46.931Z,5.97
2018-12-07T10:54:14.527Z,5.77
2018-12-07T10:56:42.083Z,6.17
2018-12-07T10:59:09.597Z,5.47
2018-12-07T11:01:42.775Z,6.13
2018-12-07T11:04:15.865Z,6.20
2018-12-07T11:06:56.298Z,5.90
2018-12-07T11:09:31.735Z,4.83
2018-12-07T11:12:04.987Z,5.10
2018-12-07T11:14:38.331Z,4.90
2018-12-07T11:17:11.693Z,5.30
2018-12-07T11:19:44.907Z,5.00
2018-12-07T11:22:18.168Z,4.57
2018-12-07T11:24:51.849Z,4.60
2018-12-07T11:27:32.062Z,4.57
2018-12-07T11:33:10.504Z,4.13
2018-12-07T11:35:38.567Z,3.60
2018-12-07T11:38:06.173Z,3.30
2018-12-07T11:40:33.755Z,2.90
2018-12-07T11:43:01.251Z,2.90
2018-12-07T11:45:28.984Z,3.43
2018-12-07T11:47:56.483Z,3.47
2018-12-07T11:50:24.047Z,2.87
2018-12-07T11:52:51.601Z,3.17
2018-12-07T11:55:19.184Z,14.77
2018-12-07T11:57:46.863Z,3.17
2018-12-07T12:00:14.731Z,2.47
2018-12-07T12:02:42.266Z,2.67
2018-12-07T12:05:09.939Z,2.47
2018-12-07T12:07:37.474Z,2.33
2018-12-07T12:10:05.796Z,2.37
2018-12-07T12:12:33.285Z,2.17
2018-12-07T12:15:00.861Z,2.20
2018-12-07T12:17:28.430Z,2.07
2018-12-07T12:19:56.403Z,2.27
2018-12-07T12:22:24.037Z,2.27
2018-12-07T12:24:51.729Z,2.00
2018-12-07T12:27:19.302Z,2.00
2018-12-07T12:29:46.831Z,1.93
2018-12-07T12:35:05.494Z,2.90
2018-12-07T13:22:58.286Z,6.10
2018-12-07T13:25:25.804Z,6.30
2018-12-07T13:27:53.482Z,7.27
2018-12-07T13:30:21.001Z,6.83
2018-12-07T13:32:48.535Z,6.80
2018-12-07T13:35:16.094Z,6.67
2018-12-07T13:37:44.395Z,6.80
2018-12-07T13:40:12.047Z,6.90
2018-12-07T13:42:39.764Z,6.80
2018-12-07T13:45:07.941Z,7.30
2018-12-07T13:47:35.643Z,7.47
2018-12-07T13:50:09.995Z,6.90
2018-12-07T13:52:37.750Z,7.50
2018-12-07T13:55:05.732Z,7.20
2018-12-07T13:57:33.474Z,7.10
2018-12-07T14:00:01.301Z,6.80
2018-12-07T14:02:28.925Z,7.33
2018-12-07T14:04:56.588Z,7.10
2018-12-07T14:07:24.332Z,7.20
2018-12-07T14:09:51.998Z,7.47
2018-12-07T14:12:19.592Z,9.57
2018-12-07T14:14:47.440Z,9.40
2018-12-07T14:17:16.153Z,11.10
2018-12-07T14:19:45.091Z,11.10
2018-12-07T14:22:12.788Z,11.73
2018-12-07T14:24:40.811Z,11.97
2018-12-07T14:27:08.534Z,12.53
2018-12-07T14:29:36.238Z,12.37
2018-12-07T14:32:04.023Z,12.47
2018-12-07T14:34:31.757Z,11.90
2018-12-07T14:36:59.459Z,11.30
2018-12-07T14:39:27.147Z,11.87
2018-12-07T14:41:55.011Z,11.73
2018-12-07T14:44:22.820Z,11.67
2018-12-07T14:46:50.455Z,11.73
2018-12-07T14:49:18.046Z,11.53
2018-12-07T14:51:45.856Z,10.13
2018-12-07T14:54:13.582Z,10.00
2018-12-07T14:56:41.235Z,9.87
2018-12-07T14:59:08.862Z,8.60
2018-12-07T15:01:36.417Z,8.33
2018-12-07T15:04:04.350Z,7.70
2018-12-07T15:06:32.226Z,7.57
2018-12-07T15:09:00.007Z,8.07
2018-12-07T15:11:27.714Z,6.80
2018-12-07T15:13:55.670Z,6.37
2018-12-07T15:16:23.505Z,7.10
2018-12-07T15:18:51.108Z,6.67
2018-12-07T15:21:18.908Z,6.90
2018-12-07T15:23:47.628Z,7.67
2018-12-07T15:26:15.557Z,8.07
2018-12-07T15:28:43.431Z,8.10
2018-12-07T15:31:11.106Z,8.00
2018-12-07T15:33:38.968Z,8.60
2018-12-07T15:36:06.926Z,9.37
2018-12-07T15:38:34.758Z,10.17
2018-12-07T15:41:02.508Z,9.73
2018-12-07T15:43:30.264Z,10.17
2018-12-07T15:45:57.934Z,10.13
2018-12-07T15:48:25.758Z,11.73
2018-12-07T15:50:53.416Z,13.13
2018-12-07T15:53:21.191Z,15.73
2018-12-07T15:55:48.873Z,13.33
2018-12-07T15:58:16.567Z,11.83
2018-12-07T16:00:44.329Z,11.90
2018-12-07T16:03:12.148Z,11.10
2018-12-07T16:05:39.799Z,8.87
2018-12-07T16:08:07.511Z,9.93
2018-12-07T16:10:35.313Z,9.80
2018-12-07T16:13:03.140Z,8.50
2018-12-07T16:15:30.997Z,8.97
2018-12-07T16:17:58.726Z,9.67
2018-12-07T16:20:26.514Z,10.00
2018-12-07T16:22:54.104Z,9.03
2018-12-07T16:25:21.960Z,9.53
2018-12-07T16:27:49.516Z,9.97
2018-12-07T16:30:17.248Z,10.43
2018-12-07T16:32:45.804Z,12.20
2018-12-07T16:35:14.600Z,12.07
2018-12-07T16:37:42.336Z,13.17
2018-12-07T16:40:09.895Z,14.00
2018-12-07T16:42:38.917Z,14.77
2018-12-07T16:45:06.842Z,14.63
2018-12-07T16:47:35.031Z,14.63
2018-12-07T16:50:03.037Z,16.07
2018-12-07T16:52:31.398Z,17.20
2018-12-07T16:54:59.260Z,17.75
2018-12-07T16:57:27.259Z,18.83
2018-12-07T16:59:55.610Z,18.17
2018-12-07T17:02:23.241Z,19.73
2018-12-07T17:04:51.003Z,20.10
2018-12-07T17:07:18.855Z,19.70
2018-12-07T17:09:46.845Z,19.90
2018-12-07T17:12:14.626Z,20.60
2018-12-07T17:14:42.484Z,20.60
2018-12-07T17:17:10.550Z,20.97
2018-12-07T17:19:38.538Z,19.50
2018-12-07T17:22:06.355Z,20.27
2018-12-07T17:24:34.550Z,19.30
2018-12-07T17:27:02.274Z,19.73
2018-12-07T17:29:30.083Z,19.07
2018-12-07T17:31:57.695Z,18.23
2018-12-07T17:34:25.428Z,16.47
2018-12-07T17:36:53.270Z,17.13
2018-12-07T17:39:21.870Z,16.80
2018-12-07T17:41:50.452Z,16.30
2018-12-07T17:44:18.724Z,15.10
2018-12-07T17:46:46.583Z,16.07
2018-12-07T17:49:14.623Z,15.40
2018-12-07T17:51:42.327Z,15.70
2018-12-07T17:54:10.377Z,15.43
2018-12-07T17:56:38.944Z,16.00
2018-12-07T17:59:07.155Z,15.87
2018-12-07T18:01:35.004Z,15.87
2018-12-07T18:04:02.633Z,15.50
2018-12-07T18:06:30.652Z,15.60
2018-12-07T18:08:58.632Z,15.07
2018-12-07T18:11:26.385Z,15.10
2018-12-07T18:13:54.008Z,14.97
2018-12-07T18:16:21.762Z,15.33
2018-12-07T18:18:49.672Z,14.77
2018-12-07T18:21:17.234Z,15.40
2018-12-07T18:23:44.810Z,14.10
2018-12-07T18:26:12.726Z,14.33
2018-12-07T18:28:40.483Z,14.63
2018-12-07T18:31:08.113Z,14.80
2018-12-07T18:33:36.022Z,14.30
2018-12-07T18:36:03.813Z,14.43
2018-12-07T18:38:32.171Z,13.83
2018-12-07T18:40:59.736Z,14.13
2018-12-07T18:43:27.560Z,13.40
2018-12-07T18:45:55.507Z,13.27
2018-12-07T18:48:23.270Z,11.30
2018-12-07T18:50:51.285Z,12.03
2018-12-07T18:53:19.080Z,10.80
2018-12-07T18:55:46.966Z,10.37
2018-12-07T18:58:15.301Z,10.03
2018-12-07T19:00:43.146Z,11.00
2018-12-07T19:03:10.911Z,10.25
2018-12-07T19:05:38.958Z,10.67
2018-12-07T19:08:06.839Z,10.20
2018-12-07T19:10:36.087Z,11.00
2018-12-07T19:13:03.831Z,11.13
2018-12-07T19:15:31.388Z,12.20
2018-12-07T19:17:59.472Z,10.77
2018-12-07T19:20:28.199Z,10.43
2018-12-07T19:22:56.268Z,10.57
2018-12-07T19:25:24.924Z,10.23
2018-12-07T19:27:52.672Z,9.80
2018-12-07T19:30:20.262Z,9.23
2018-12-07T19:32:49.262Z,10.20
2018-12-07T19:35:17.249Z,9.03
2018-12-07T19:37:45.042Z,9.30
2018-12-07T19:40:13.551Z,9.90
2018-12-07T19:42:41.386Z,9.13
2018-12-07T19:45:09.319Z,3.73
2018-12-07T19:47:37.070Z,1.80
2018-12-07T19:50:07.359Z,1.93
2018-12-07T19:52:35.105Z,1.93
2018-12-07T19:55:02.868Z,2.33
2018-12-07T19:57:31.605Z,3.23
2018-12-07T19:59:59.222Z,2.77
2018-12-07T20:02:27.064Z,3.27
2018-12-07T20:04:55.420Z,3.73
2018-12-07T20:07:23.118Z,3.13
2018-12-07T20:09:50.840Z,2.73
2018-12-07T20:12:19.448Z,3.37
2018-12-07T20:14:48.089Z,3.13
2018-12-07T20:17:15.667Z,3.70
2018-12-07T20:19:45.169Z,3.40
2018-12-07T20:22:13.123Z,3.33
2018-12-07T20:24:41.482Z,3.10
2018-12-07T20:27:09.477Z,3.90
2018-12-07T20:29:37.685Z,3.40
2018-12-07T20:32:05.371Z,3.70
2018-12-07T20:34:33.077Z,3.40
2018-12-07T20:37:02.587Z,3.30
2018-12-07T20:39:31.343Z,3.17
2018-12-07T20:41:59.247Z,2.83
2018-12-07T20:44:26.915Z,2.67
2018-12-07T20:46:54.585Z,3.17
2018-12-07T20:49:22.190Z,4.10
2018-12-07T20:51:49.841Z,3.17
2018-12-07T20:54:18.111Z,2.87
2018-12-07T20:56:47.975Z,2.67
2018-12-07T20:59:15.739Z,2.57
2018-12-07T21:01:50.913Z,2.47
2018-12-07T21:04:24.942Z,2.60
2018-12-07T21:10:28.976Z,2.30
2018-12-07T21:19:47.781Z,2.33
2018-12-07T21:22:15.748Z,2.00
2018-12-07T21:24:43.425Z,1.87
2018-12-07T21:27:11.306Z,2.63
2018-12-07T21:29:39.666Z,2.70
2018-12-07T21:32:10.719Z,2.70
2018-12-07T21:34:56.278Z,2.50
2018-12-07T21:37:23.982Z,2.23
2018-12-07T21:39:51.925Z,2.83
2018-12-07T21:42:19.956Z,2.53
2018-12-07T21:44:47.786Z,2.77
2018-12-07T21:47:16.514Z,2.63
2018-12-07T21:49:44.672Z,2.40
2018-12-07T21:52:15.815Z,3.73
2018-12-07T21:54:43.383Z,3.40
2018-12-07T21:57:11.152Z,2.53
2018-12-07T21:59:39.023Z,3.00
2018-12-07T22:02:06.632Z,3.23
2018-12-07T22:04:34.487Z,3.07
2018-12-07T22:07:02.403Z,3.10
2018-12-07T22:09:30.399Z,3.33
2018-12-07T22:11:58.077Z,2.63
2018-12-07T22:14:26.288Z,2.77
2018-12-07T22:16:54.019Z,2.53
2018-12-07T22:19:21.654Z,3.30
2018-12-07T22:21:49.243Z,3.30
2018-12-07T22:24:17.721Z,2.90
2018-12-07T22:26:45.619Z,2.87
2018-12-07T22:29:13.446Z,3.03
2018-12-07T22:31:41.176Z,2.80
2018-12-07T22:34:09.011Z,3.10
2018-12-07T22:36:36.823Z,3.20
2018-12-07T22:39:05.898Z,3.00
2018-12-07T22:41:35.601Z,2.90
2018-12-07T22:44:03.289Z,3.07
2018-12-07T22:46:30.891Z,3.13
2018-12-07T22:48:58.529Z,3.00
2018-12-07T22:51:27.178Z,3.70
2018-12-07T22:53:54.728Z,3.60
2018-12-07T22:56:22.346Z,3.13
2018-12-07T22:58:49.863Z,3.83
2018-12-07T23:01:17.587Z,3.20
2018-12-07T23:03:45.197Z,3.50
2018-12-07T23:06:12.755Z,2.90
2018-12-07T23:08:40.295Z,3.03
2018-12-07T23:11:07.818Z,3.20
2018-12-07T23:13:35.414Z,3.30
2018-12-07T23:16:02.977Z,3.83
2018-12-07T23:18:30.530Z,3.77
2018-12-07T23:20:58.070Z,3.40
2018-12-07T23:23:25.597Z,2.80
2018-12-07T23:25:53.196Z,3.80
2018-12-07T23:28:20.721Z,3.57
2018-12-07T23:30:48.330Z,3.80
2018-12-07T23:33:15.896Z,3.60
2018-12-07T23:35:43.412Z,4.40
2018-12-07T23:38:10.952Z,3.83
2018-12-07T23:40:38.471Z,3.40
2018-12-07T23:43:07.933Z,3.50
2018-12-07T23:45:35.541Z,4.77
2018-12-07T23:48:03.109Z,4.63
2018-12-07T23:50:30.607Z,3.77
2018-12-07T23:52:58.212Z,3.87
2018-12-07T23:55:25.747Z,4.50
2018-12-07T23:57:53.264Z,3.83
